Time;durP1;ratioP1;P1;durP2;ratioP2;P2;SDS_P1;SDS_P2;PMS_P1;PMS_P2;Temp;Humidity;BMP_temperature;BMP_pressure;BME280_temperature;BME280_humidity;BME280_pressure;Samples;Min_cycle;Max_cycle;Signal;HPM_P1;HPM_P2
2023/01/25 00:00:28;;;;;;;24.33;10.80;;;6.70;58.50;;;;;;5004997;28;20446;-89
2023/01/25 00:02:57;;;;;;;21.83;11.30;;;6.70;58.70;;;;;;5021950;28;20462;-88
2023/01/25 00:05:24;;;;;;;20.20;10.13;;;6.70;58.40;;;;;;5027227;28;20461;-88
2023/01/25 00:07:51;;;;;;;20.20;11.47;;;6.70;58.60;;;;;;5039054;28;20438;-88
2023/01/25 00:10:18;;;;;;;21.07;10.50;;;6.60;58.40;;;;;;5058274;28;20452;-86
2023/01/25 00:12:45;;;;;;;21.00;9.80;;;6.60;58.70;;;;;;5039444;28;20457;-89
2023/01/25 00:15:12;;;;;;;16.97;9.90;;;6.60;58.40;;;;;;5010971;28;20537;-90
2023/01/25 00:17:39;;;;;;;20.03;10.97;;;6.50;58.90;;;;;;5044588;28;20816;-89
2023/01/25 00:20:09;;;;;;;17.80;9.80;;;6.70;58.90;;;;;;5025516;28;20441;-88
2023/01/25 00:22:36;;;;;;;19.23;9.37;;;6.60;58.20;;;;;;5020636;28;21864;-89
2023/01/25 00:25:03;;;;;;;20.03;10.80;;;6.60;58.30;;;;;;5040119;28;20438;-86
2023/01/25 00:27:30;;;;;;;24.27;10.70;;;6.60;58.60;;;;;;5012731;28;20449;-89
2023/01/25 00:29:57;;;;;;;25.00;11.43;;;6.70;58.30;;;;;;5023742;28;20456;-88
2023/01/25 00:32:52;;;;;;;25.90;12.60;;;6.60;58.40;;;;;;5007407;28;20526;-89
2023/01/25 00:35:21;;;;;;;19.33;11.23;;;6.70;58.60;;;;;;5003831;28;20445;-87
2023/01/25 00:37:52;;;;;;;18.57;11.77;;;6.80;58.50;;;;;;5015416;28;20445;-87
2023/01/25 00:40:19;;;;;;;25.10;10.90;;;6.40;59.00;;;;;;5004551;28;20453;-89
2023/01/25 00:42:46;;;;;;;22.60;12.03;;;6.50;59.20;;;;;;5006187;28;20474;-88
2023/01/25 00:45:14;;;;;;;23.60;11.73;;;6.70;58.90;;;;;;5007562;28;20471;-88
2023/01/25 00:47:41;;;;;;;24.97;11.50;;;6.80;58.20;;;;;;5008954;28;21022;-88
2023/01/25 00:50:09;;;;;;;19.37;10.53;;;6.90;58.40;;;;;;5015666;28;21057;-89
2023/01/25 00:52:40;;;;;;;22.60;12.23;;;6.90;58.00;;;;;;5022115;28;20573;-88
2023/01/25 00:55:08;;;;;;;26.57;11.53;;;6.90;58.20;;;;;;5028491;28;20509;-88
2023/01/25 00:57:35;;;;;;;20.23;10.97;;;6.90;58.10;;;;;;5006449;28;20440;-89
2023/01/25 01:00:02;;;;;;;20.73;11.90;;;6.70;58.00;;;;;;5020166;28;20448;-89
2023/01/25 01:02:30;;;;;;;24.20;11.80;;;6.70;58.20;;;;;;5006641;28;20461;-86
2023/01/25 01:04:57;;;;;;;21.90;10.40;;;6.70;58.20;;;;;;5005257;28;20967;-88
2023/01/25 01:07:24;;;;;;;21.63;11.07;;;6.50;58.20;;;;;;5024135;28;20453;-89
2023/01/25 01:09:54;;;;;;;22.50;12.03;;;6.30;59.20;;;;;;5030664;28;20511;-89
2023/01/25 01:12:21;;;;;;;21.33;11.20;;;6.60;58.90;;;;;;5010884;28;20476;-91
2023/01/25 01:14:48;;;;;;;24.70;11.20;;;6.60;58.30;;;;;;5001289;28;20453;-88
2023/01/25 01:17:15;;;;;;;21.43;10.00;;;6.60;58.30;;;;;;5023842;28;20448;-89
2023/01/25 01:19:42;;;;;;;18.53;10.03;;;6.60;58.50;;;;;;5029061;28;20457;-89
2023/01/25 01:22:08;;;;;;;21.60;9.67;;;6.60;58.40;;;;;;5013707;28;20487;-88
2023/01/25 01:24:35;;;;;;;21.00;10.50;;;6.70;58.40;;;;;;5042561;28;20938;-88
2023/01/25 01:27:05;;;;;;;17.57;8.97;;;6.40;58.10;;;;;;5024513;28;20484;-89
2023/01/25 01:29:32;;;;;;;17.23;8.50;;;6.50;58.50;;;;;;5018789;28;20808;-88
2023/01/25 01:31:59;;;;;;;18.40;9.47;;;6.50;58.50;;;;;;5036685;28;20472;-89
2023/01/25 01:34:27;;;;;;;19.83;9.70;;;6.40;58.40;;;;;;5033103;28;20450;-87
2023/01/25 01:36:54;;;;;;;15.83;9.13;;;6.40;58.90;;;;;;5028387;28;20456;-87
2023/01/25 01:39:22;;;;;;;18.73;8.80;;;6.50;58.40;;;;;;5009095;28;20445;-88
2023/01/25 01:41:49;;;;;;;17.20;9.30;;;6.30;58.50;;;;;;5042605;28;20469;-89
2023/01/25 01:44:21;;;;;;;15.27;9.60;;;6.50;58.80;;;;;;5024608;28;20452;-89
2023/01/25 01:46:57;;;;;;;18.43;10.03;;;6.60;58.50;;;;;;5006568;28;20879;-88
2023/01/25 01:49:29;;;;;;;19.20;10.10;;;6.60;58.30;;;;;;5006831;28;20453;-89
2023/01/25 01:52:06;;;;;;;16.20;9.87;;;6.50;57.80;;;;;;5048786;28;20477;-85
2023/01/25 01:54:40;;;;;;;18.43;9.10;;;6.60;58.30;;;;;;5028474;28;20448;-87
2023/01/25 01:57:13;;;;;;;19.33;9.47;;;6.50;58.10;;;;;;5013432;28;20840;-88
2023/01/25 01:59:44;;;;;;;20.60;9.83;;;6.50;58.30;;;;;;5017053;28;21877;-87
2023/01/25 02:02:12;;;;;;;22.97;11.73;;;6.50;58.60;;;;;;5028108;28;20465;-87
2023/01/25 02:04:39;;;;;;;22.53;11.60;;;6.60;58.50;;;;;;5030103;28;20468;-87
2023/01/25 02:07:17;;;;;;;24.03;11.53;;;6.70;58.20;;;;;;5027093;28;20448;-87
2023/01/25 02:09:48;;;;;;;20.00;10.63;;;6.80;58.00;;;;;;5021677;28;20531;-87
2023/01/25 02:12:16;;;;;;;21.77;10.93;;;6.70;58.50;;;;;;5028153;28;20564;-88
2023/01/25 02:14:51;;;;;;;18.43;9.87;;;6.50;58.30;;;;;;5015506;28;20437;-86
2023/01/25 02:17:26;;;;;;;20.67;9.30;;;6.50;58.40;;;;;;5011840;28;20523;-86
2023/01/25 02:20:00;;;;;;;19.67;10.60;;;6.50;58.50;;;;;;5020710;28;20449;-87
2023/01/25 02:22:36;;;;;;;16.63;9.43;;;6.60;58.30;;;;;;5040338;28;20974;-88
2023/01/25 02:25:08;;;;;;;17.50;10.23;;;6.50;58.90;;;;;;5027645;28;20441;-86
2023/01/25 02:27:39;;;;;;;18.27;9.40;;;6.40;58.70;;;;;;5028327;28;20487;-87
2023/01/25 02:30:08;;;;;;;17.17;9.00;;;6.50;58.70;;;;;;5012246;28;20476;-86
2023/01/25 02:32:35;;;;;;;20.40;10.90;;;6.60;58.30;;;;;;5009868;28;21341;-87
2023/01/25 02:35:02;;;;;;;16.63;8.60;;;6.60;58.40;;;;;;5007479;28;20458;-86
2023/01/25 02:37:30;;;;;;;24.00;11.90;;;6.60;58.30;;;;;;5014007;28;20833;-87
2023/01/25 02:39:57;;;;;;;18.97;10.23;;;6.40;58.80;;;;;;5013209;28;20803;-87
2023/01/25 02:42:30;;;;;;;16.77;9.20;;;6.50;58.50;;;;;;5013621;28;20509;-88
2023/01/25 02:44:58;;;;;;;20.53;10.77;;;6.40;58.80;;;;;;5022321;28;20543;-87
2023/01/25 02:47:25;;;;;;;15.80;9.10;;;6.30;58.50;;;;;;5004837;28;20456;-87
2023/01/25 02:49:52;;;;;;;21.90;10.97;;;6.20;59.00;;;;;;5015868;28;20445;-87
2023/01/25 02:52:19;;;;;;;20.13;9.77;;;6.30;59.20;;;;;;5026121;28;20487;-87
2023/01/25 02:54:46;;;;;;;18.23;9.00;;;6.30;58.70;;;;;;5016304;28;20456;-87
2023/01/25 02:57:13;;;;;;;14.90;8.63;;;6.40;58.40;;;;;;5031420;28;20449;-87
2023/01/25 02:59:46;;;;;;;17.27;8.73;;;6.00;58.70;;;;;;5057206;28;20954;-87
2023/01/25 03:02:14;;;;;;;17.23;9.13;;;6.10;58.90;;;;;;5021393;28;20460;-87
2023/01/25 03:04:42;;;;;;;17.57;9.00;;;6.20;58.80;;;;;;5023711;28;20457;-85
2023/01/25 03:07:09;;;;;;;17.70;9.00;;;6.30;58.70;;;;;;5008377;28;20474;-87
2023/01/25 03:09:36;;;;;;;22.03;11.00;;;6.30;58.30;;;;;;5019506;28;20436;-85
2023/01/25 03:12:04;;;;;;;18.87;10.50;;;6.40;58.40;;;;;;5030658;28;20481;-87
2023/01/25 03:14:33;;;;;;;18.63;11.57;;;6.30;58.70;;;;;;5015052;28;20946;-88
2023/01/25 03:17:01;;;;;;;21.63;11.10;;;6.40;58.50;;;;;;5026970;28;20477;-87
2023/01/25 03:19:28;;;;;;;17.13;10.07;;;6.40;58.60;;;;;;5020478;28;20949;-87
2023/01/25 03:21:57;;;;;;;22.77;10.60;;;6.40;58.10;;;;;;5044328;28;20468;-86
2023/01/25 03:24:25;;;;;;;19.47;10.40;;;6.30;58.70;;;;;;5002624;28;20442;-86
2023/01/25 03:29:56;;;;;;;19.00;10.57;;;6.60;58.20;;;;;;5019043;28;20433;-87
2023/01/25 03:32:28;;;;;;;17.23;10.07;;;6.60;57.70;;;;;;5026619;28;20536;-87
2023/01/25 03:34:55;;;;;;;17.93;9.73;;;6.30;58.30;;;;;;5013685;28;20952;-87
2023/01/25 03:37:22;;;;;;;18.00;10.17;;;6.10;58.80;;;;;;5015738;28;20445;-87
2023/01/25 03:39:50;;;;;;;22.97;10.27;;;6.20;59.00;;;;;;5011028;28;20440;-88
2023/01/25 03:42:20;;;;;;;17.37;9.40;;;6.00;58.90;;;;;;5031780;28;20841;-88
2023/01/25 03:44:48;;;;;;;17.80;9.43;;;5.90;59.20;;;;;;5010245;28;20531;-87
2023/01/25 03:47:16;;;;;;;16.37;9.23;;;6.00;59.40;;;;;;5021611;28;20523;-87
2023/01/25 03:49:44;;;;;;;18.80;10.47;;;6.10;59.00;;;;;;5011464;28;20444;-87
2023/01/25 03:52:11;;;;;;;24.97;11.63;;;6.40;58.60;;;;;;5022897;28;20469;-86
2023/01/25 03:54:41;;;;;;;18.70;8.70;;;6.60;58.20;;;;;;5029211;28;20448;-85
2023/01/25 03:57:10;;;;;;;18.47;11.10;;;6.50;57.70;;;;;;5014172;28;20450;-83
2023/01/25 03:59:57;;;;;;;19.30;9.67;;;6.50;57.90;;;;;;5028358;28;21222;-86
2023/01/25 04:02:24;;;;;;;15.53;9.20;;;6.30;58.30;;;;;;5015402;28;20971;-87
2023/01/25 04:04:54;;;;;;;16.30;9.00;;;6.40;58.10;;;;;;5022996;28;20461;-87
2023/01/25 04:07:22;;;;;;;17.80;8.90;;;6.40;58.10;;;;;;5004795;28;20823;-87
2023/01/25 04:09:50;;;;;;;26.17;11.40;;;6.30;58.10;;;;;;5033902;28;20437;-87
2023/01/25 04:12:17;;;;;;;19.33;9.67;;;6.30;58.00;;;;;;5010015;28;20550;-88
2023/01/25 04:14:45;;;;;;;17.33;9.00;;;6.50;58.00;;;;;;5013555;28;20456;-87
2023/01/25 04:17:21;;;;;;;18.67;9.70;;;6.50;57.60;;;;;;5043894;28;20445;-88
2023/01/25 04:20:00;;;;;;;14.80;8.70;;;6.50;57.90;;;;;;5021180;28;20463;-87
2023/01/25 04:22:34;;;;;;;20.10;10.80;;;6.40;57.60;;;;;;5021037;28;20484;-85
2023/01/25 04:25:03;;;;;;;17.97;9.57;;;6.30;57.90;;;;;;5004634;28;20445;-86
2023/01/25 04:27:30;;;;;;;16.63;10.20;;;6.30;57.70;;;;;;5005309;28;20446;-87
2023/01/25 04:30:04;;;;;;;18.13;10.17;;;6.30;58.00;;;;;;5016444;28;20449;-88
2023/01/25 04:32:35;;;;;;;16.17;9.17;;;6.40;58.90;;;;;;5015842;28;21053;-88
2023/01/25 04:35:04;;;;;;;18.67;10.63;;;6.40;58.00;;;;;;5012766;28;21024;-87
2023/01/25 04:37:31;;;;;;;16.80;9.37;;;6.40;57.90;;;;;;5009078;28;20495;-88
2023/01/25 04:40:00;;;;;;;20.40;10.70;;;6.50;57.60;;;;;;5028090;28;21252;-87
2023/01/25 04:42:30;;;;;;;17.50;8.73;;;6.40;57.40;;;;;;5022249;28;20516;-85
2023/01/25 04:44:57;;;;;;;13.27;8.60;;;6.40;57.60;;;;;;5032025;28;20929;-87
2023/01/25 04:47:24;;;;;;;18.50;9.87;;;6.20;58.30;;;;;;5006232;28;20481;-87
2023/01/25 04:49:51;;;;;;;16.00;9.20;;;6.30;58.10;;;;;;5028601;28;20447;-86
2023/01/25 04:52:23;;;;;;;17.50;9.70;;;6.30;58.00;;;;;;5037439;28;21343;-87
2023/01/25 04:54:50;;;;;;;16.60;9.53;;;6.40;57.80;;;;;;4999973;28;20892;-85
2023/01/25 04:57:18;;;;;;;14.57;8.33;;;6.30;57.80;;;;;;5019745;28;20449;-85
2023/01/25 04:59:49;;;;;;;16.37;8.93;;;6.40;57.70;;;;;;5014757;28;20475;-85
2023/01/25 05:02:16;;;;;;;12.30;7.27;;;6.10;57.90;;;;;;5026202;28;20560;-85
2023/01/25 05:04:43;;;;;;;17.43;10.17;;;6.20;58.20;;;;;;5002617;28;20458;-84
2023/01/25 05:07:11;;;;;;;15.20;8.70;;;6.20;57.90;;;;;;5018081;28;20525;-85
2023/01/25 05:09:39;;;;;;;21.10;10.20;;;6.10;58.20;;;;;;5023359;28;20540;-86
2023/01/25 05:12:10;;;;;;;19.43;8.43;;;6.00;58.40;;;;;;5018085;28;20476;-85
2023/01/25 05:14:49;;;;;;;15.03;8.60;;;5.90;58.50;;;;;;5008900;28;20869;-84
2023/01/25 05:17:16;;;;;;;13.90;7.80;;;6.00;58.70;;;;;;5042705;28;20524;-86
2023/01/25 05:19:44;;;;;;;18.80;9.63;;;6.00;58.70;;;;;;4999696;28;21062;-86
2023/01/25 05:22:16;;;;;;;20.57;10.33;;;6.10;58.40;;;;;;5005954;28;20468;-85
2023/01/25 05:24:49;;;;;;;17.03;8.97;;;6.10;58.20;;;;;;5002782;28;20447;-86
2023/01/25 05:27:17;;;;;;;19.37;9.03;;;6.20;58.50;;;;;;5010645;28;20442;-85
2023/01/25 05:30:06;;;;;;;22.20;10.10;;;6.20;58.20;;;;;;4985956;28;20457;-85
2023/01/25 05:32:39;;;;;;;22.00;11.07;;;6.30;57.80;;;;;;5033484;28;20480;-85
2023/01/25 05:35:07;;;;;;;23.87;11.10;;;6.50;57.90;;;;;;5017971;28;20546;-86
2023/01/25 05:37:34;;;;;;;23.13;12.90;;;6.50;57.50;;;;;;5006616;28;20483;-86
2023/01/25 05:40:08;;;;;;;21.47;11.00;;;6.50;57.30;;;;;;5000530;28;20490;-85
2023/01/25 05:42:38;;;;;;;22.13;11.40;;;6.40;57.60;;;;;;5011819;28;20493;-86
2023/01/25 05:45:10;;;;;;;20.70;10.97;;;6.30;57.90;;;;;;5004126;28;20455;-85
2023/01/25 05:47:39;;;;;;;25.67;12.47;;;6.10;58.10;;;;;;5018195;28;20452;-87
2023/01/25 05:50:07;;;;;;;26.70;13.70;;;6.10;58.60;;;;;;5032369;28;21174;-85
2023/01/25 05:52:46;;;;;;;23.17;12.87;;;6.10;58.40;;;;;;5001278;28;20546;-86
2023/01/25 05:55:15;;;;;;;18.13;10.37;;;6.20;58.40;;;;;;5005888;28;20507;-85
2023/01/25 05:57:42;;;;;;;22.60;10.33;;;6.30;58.10;;;;;;5012769;28;20456;-85
2023/01/25 06:00:11;;;;;;;19.87;9.77;;;6.20;58.50;;;;;;5024714;28;20454;-85
2023/01/25 06:02:41;;;;;;;19.33;10.77;;;6.20;58.10;;;;;;5010766;28;21268;-86
2023/01/25 06:05:10;;;;;;;17.50;8.50;;;6.20;57.90;;;;;;5020050;28;20469;-88
2023/01/25 06:07:38;;;;;;;21.53;11.03;;;6.20;58.20;;;;;;5030589;28;21194;-87
2023/01/25 06:10:06;;;;;;;20.33;12.50;;;6.20;58.10;;;;;;5017964;28;21265;-83
2023/01/25 06:12:35;;;;;;;18.20;10.90;;;6.20;58.40;;;;;;5025726;28;20473;-87
2023/01/25 06:15:02;;;;;;;25.23;10.83;;;6.20;58.50;;;;;;4999701;28;20955;-85
2023/01/25 06:17:29;;;;;;;21.17;11.63;;;6.20;58.30;;;;;;5043914;28;21214;-85
2023/01/25 06:20:04;;;;;;;16.53;9.80;;;6.30;58.00;;;;;;5020545;28;20457;-87
2023/01/25 06:22:38;;;;;;;20.33;10.47;;;6.40;58.40;;;;;;5000039;28;20465;-85
2023/01/25 06:25:06;;;;;;;18.53;9.13;;;6.40;58.00;;;;;;5024416;28;20468;-86
2023/01/25 06:27:34;;;;;;;18.43;10.90;;;6.40;57.90;;;;;;5023250;28;20446;-84
2023/01/25 06:30:01;;;;;;;22.57;10.93;;;5.90;58.50;;;;;;5018590;28;20457;-86
2023/01/25 06:32:32;;;;;;;18.03;9.97;;;5.60;59.60;;;;;;5038235;28;20476;-86
2023/01/25 06:34:59;;;;;;;23.90;10.77;;;5.80;59.50;;;;;;5023903;28;20525;-84
2023/01/25 06:37:26;;;;;;;18.10;11.13;;;5.90;58.80;;;;;;5010153;28;20994;-86
2023/01/25 06:39:53;;;;;;;20.30;10.70;;;5.70;59.10;;;;;;5008309;28;20455;-83
2023/01/25 06:42:20;;;;;;;21.40;11.67;;;5.70;59.70;;;;;;5026003;28;20536;-85
2023/01/25 06:44:48;;;;;;;20.57;11.73;;;5.90;59.90;;;;;;5024244;28;20453;-82
2023/01/25 06:47:15;;;;;;;31.80;13.70;;;6.00;59.40;;;;;;5032760;28;20484;-86
2023/01/25 06:49:42;;;;;;;26.50;13.70;;;6.20;58.90;;;;;;5012747;28;20461;-84
2023/01/25 06:52:09;;;;;;;19.83;12.30;;;6.30;58.20;;;;;;5014999;28;21337;-85
2023/01/25 06:54:36;;;;;;;25.83;13.77;;;6.30;58.40;;;;;;5022740;28;20477;-85
2023/01/25 06:57:03;;;;;;;27.03;13.73;;;6.30;58.10;;;;;;5018688;28;20449;-85
2023/01/25 06:59:30;;;;;;;26.10;14.07;;;6.40;58.30;;;;;;5028767;28;20519;-84
2023/01/25 07:01:58;;;;;;;26.17;12.50;;;6.40;58.20;;;;;;5017102;28;20500;-85
2023/01/25 07:04:25;;;;;;;26.40;12.63;;;6.40;58.30;;;;;;5033034;28;20457;-87
2023/01/25 07:06:52;;;;;;;22.90;11.37;;;6.60;58.00;;;;;;5010291;28;20531;-86
2023/01/25 07:09:22;;;;;;;19.63;9.43;;;6.60;57.80;;;;;;5032041;28;20958;-86
2023/01/25 07:11:50;;;;;;;20.10;10.33;;;6.70;57.80;;;;;;5005253;28;20472;-84
2023/01/25 07:14:17;;;;;;;19.37;10.50;;;6.50;57.60;;;;;;5013194;28;20463;-85
2023/01/25 07:16:44;;;;;;;21.03;10.00;;;6.50;57.60;;;;;;5053082;28;20448;-84
2023/01/25 07:19:13;;;;;;;25.30;10.57;;;6.60;57.70;;;;;;5017258;28;20491;-84
2023/01/25 07:21:40;;;;;;;22.00;10.67;;;6.50;57.70;;;;;;4998668;28;20449;-86
2023/01/25 07:24:07;;;;;;;18.07;8.30;;;6.40;57.70;;;;;;4999847;28;21286;-83
2023/01/25 07:26:34;;;;;;;16.73;9.97;;;6.30;57.90;;;;;;5029968;28;20452;-85
2023/01/25 07:29:01;;;;;;;16.90;9.70;;;6.20;58.60;;;;;;5026875;28;20538;-84
2023/01/25 07:31:29;;;;;;;15.20;9.03;;;6.20;58.70;;;;;;5031355;28;20464;-85
2023/01/25 07:33:57;;;;;;;18.67;9.13;;;6.20;58.30;;;;;;5005987;28;21224;-86
2023/01/25 07:36:26;;;;;;;20.33;10.73;;;6.20;58.70;;;;;;5003552;28;20473;-86
2023/01/25 07:38:53;;;;;;;18.53;10.43;;;6.00;58.50;;;;;;5019354;28;20524;-84
2023/01/25 07:41:20;;;;;;;18.90;9.87;;;6.10;58.40;;;;;;5052105;28;20481;-86
2023/01/25 07:43:47;;;;;;;18.20;10.13;;;6.30;58.50;;;;;;4996381;28;20941;-84
2023/01/25 07:46:22;;;;;;;18.30;9.67;;;6.10;58.40;;;;;;5014908;28;20449;-85
2023/01/25 07:48:51;;;;;;;26.23;12.67;;;6.20;58.40;;;;;;5014472;28;20460;-86
2023/01/25 07:51:23;;;;;;;23.40;9.93;;;6.30;58.20;;;;;;5035794;28;20446;-86
2023/01/25 07:53:53;;;;;;;19.50;10.20;;;6.50;58.00;;;;;;5040651;28;20550;-85
2023/01/25 07:56:22;;;;;;;18.53;9.10;;;6.50;57.70;;;;;;5018032;28;20445;-86
2023/01/25 07:58:49;;;;;;;28.80;12.00;;;6.60;57.60;;;;;;5006049;28;20470;-85
2023/01/25 08:01:18;;;;;;;27.50;11.80;;;6.70;57.20;;;;;;5007030;28;20458;-84
2023/01/25 08:03:46;;;;;;;18.33;11.13;;;6.50;57.40;;;;;;5013514;28;21222;-84
2023/01/25 08:06:14;;;;;;;22.57;10.47;;;6.50;57.60;;;;;;5020218;28;20468;-84
2023/01/25 08:08:43;;;;;;;23.73;11.10;;;6.40;57.80;;;;;;5049314;28;20452;-86
2023/01/25 08:11:15;;;;;;;21.93;11.87;;;6.20;58.00;;;;;;5010805;28;20449;-85
2023/01/25 08:13:44;;;;;;;22.20;11.00;;;6.20;58.20;;;;;;4998743;28;20480;-85
2023/01/25 08:16:13;;;;;;;18.93;9.87;;;6.20;58.40;;;;;;5000472;28;20452;-84
2023/01/25 08:18:40;;;;;;;23.97;11.10;;;5.80;59.10;;;;;;5022486;28;20453;-85
2023/01/25 08:21:07;;;;;;;23.27;10.47;;;5.90;59.20;;;;;;5001374;28;21185;-84
2023/01/25 08:23:34;;;;;;;22.67;10.67;;;6.00;59.20;;;;;;5012875;28;20477;-85
2023/01/25 08:26:05;;;;;;;18.67;10.90;;;5.70;59.40;;;;;;5012576;28;20445;-84
2023/01/25 08:28:34;;;;;;;21.47;11.47;;;5.70;59.90;;;;;;5032449;28;20450;-85
2023/01/25 08:31:05;;;;;;;23.50;10.30;;;5.90;59.80;;;;;;5022608;28;20435;-85
2023/01/25 08:33:32;;;;;;;23.17;12.07;;;5.90;59.50;;;;;;5013959;28;20474;-85
2023/01/25 08:35:59;;;;;;;21.33;10.80;;;6.00;59.50;;;;;;5052335;28;20993;-83
2023/01/25 08:38:27;;;;;;;18.87;10.13;;;6.20;59.10;;;;;;5028881;28;20450;-86
2023/01/25 08:40:53;;;;;;;22.30;10.80;;;6.40;58.90;;;;;;5046756;28;20449;-85
2023/01/25 08:43:20;;;;;;;26.63;11.43;;;6.60;58.40;;;;;;5015714;28;20560;-86
2023/01/25 08:45:56;;;;;;;20.23;9.90;;;6.70;58.10;;;;;;5012407;28;21017;-86
2023/01/25 08:48:23;;;;;;;27.80;11.43;;;6.70;57.90;;;;;;5047560;28;20635;-84
2023/01/25 08:50:50;;;;;;;28.50;13.03;;;6.70;57.90;;;;;;5019864;28;20461;-85
2023/01/25 08:53:17;;;;;;;51.53;23.90;;;7.00;57.70;;;;;;5021577;28;20466;-85
2023/01/25 08:55:45;;;;;;;31.47;15.20;;;7.10;57.40;;;;;;5011575;28;20463;-85
2023/01/25 08:58:13;;;;;;;26.47;11.27;;;7.20;57.00;;;;;;5020864;28;20445;-85
2023/01/25 09:00:41;;;;;;;21.90;9.63;;;7.20;56.60;;;;;;5028615;28;20441;-86
2023/01/25 09:03:10;;;;;;;18.67;10.10;;;6.80;57.00;;;;;;4996001;28;20477;-86
2023/01/25 09:05:38;;;;;;;20.70;12.10;;;6.50;58.10;;;;;;4997274;28;20464;-85
2023/01/25 09:08:07;;;;;;;19.07;11.50;;;6.60;58.20;;;;;;5037877;28;21049;-92
2023/01/25 09:10:47;;;;;;;27.53;10.90;;;6.60;58.20;;;;;;5025679;28;20481;-90
2023/01/25 09:13:16;;;;;;;21.40;10.63;;;6.60;58.20;;;;;;5020630;28;20464;-89
2023/01/25 09:15:44;;;;;;;19.47;10.77;;;6.40;58.40;;;;;;5005438;28;20445;-88
2023/01/25 09:18:15;;;;;;;23.17;12.60;;;6.30;59.20;;;;;;5001462;28;20445;-86
2023/01/25 09:20:43;;;;;;;30.20;12.77;;;6.60;59.20;;;;;;5003707;28;20507;-89
2023/01/25 09:23:10;;;;;;;26.37;13.17;;;6.60;58.60;;;;;;5031942;28;20465;-88
2023/01/25 09:25:37;;;;;;;23.57;10.17;;;6.50;58.60;;;;;;5016505;28;20447;-88
2023/01/25 09:28:10;;;;;;;22.30;10.20;;;6.70;59.30;;;;;;5007085;28;20457;-88
2023/01/25 09:30:38;;;;;;;18.03;10.03;;;6.80;58.30;;;;;;5001005;28;20451;-88
2023/01/25 09:33:06;;;;;;;26.63;11.47;;;6.90;58.40;;;;;;5021880;28;20457;-87
2023/01/25 09:35:34;;;;;;;18.77;9.60;;;6.90;58.10;;;;;;5005773;28;20456;-87
2023/01/25 09:38:02;;;;;;;21.57;9.90;;;6.80;57.90;;;;;;5004161;28;20445;-87
2023/01/25 09:40:37;;;;;;;16.87;10.30;;;6.60;58.50;;;;;;5026074;28;21007;-89
2023/01/25 09:43:06;;;;;;;23.67;11.07;;;6.70;58.60;;;;;;5009395;28;20468;-87
2023/01/25 09:45:35;;;;;;;22.53;9.57;;;6.80;58.70;;;;;;5035256;28;20449;-88
2023/01/25 09:48:15;;;;;;;18.00;9.43;;;7.00;58.10;;;;;;5020502;28;20980;-88
2023/01/25 09:51:02;;;;;;;16.43;9.10;;;6.60;57.90;;;;;;5010484;28;20444;-88
2023/01/25 09:53:35;;;;;;;22.50;9.50;;;6.40;58.70;;;;;;5005583;28;20479;-88
2023/01/25 09:56:08;;;;;;;15.77;8.73;;;6.20;59.90;;;;;;5039486;28;20832;-89
2023/01/25 09:58:39;;;;;;;19.30;8.47;;;6.20;59.50;;;;;;5035006;28;20528;-87
2023/01/25 10:01:17;;;;;;;16.87;9.77;;;6.30;59.40;;;;;;5006837;28;20452;-87
2023/01/25 10:03:52;;;;;;;14.80;7.87;;;6.40;59.30;;;;;;5004861;28;20461;-88
2023/01/25 10:06:23;;;;;;;20.37;10.50;;;6.60;58.80;;;;;;5014051;28;20453;-89
2023/01/25 10:08:57;;;;;;;21.00;10.30;;;6.60;58.80;;;;;;5010366;28;21143;-90
2023/01/25 10:11:27;;;;;;;20.67;10.43;;;6.70;58.90;;;;;;5003594;28;20441;-88
2023/01/25 10:13:55;;;;;;;22.53;11.00;;;6.60;58.10;;;;;;5017970;28;20520;-90
2023/01/25 10:16:28;;;;;;;29.00;10.97;;;6.70;58.60;;;;;;5016411;28;21036;-90
2023/01/25 10:19:07;;;;;;;26.37;10.27;;;6.70;58.70;;;;;;5017392;28;20445;-88
2023/01/25 10:21:40;;;;;;;17.63;9.33;;;6.80;58.50;;;;;;5013869;28;20445;-88
2023/01/25 10:24:34;;;;;;;23.23;9.73;;;6.90;58.30;;;;;;5033868;28;21271;-88
2023/01/25 10:27:10;;;;;;;20.27;9.30;;;6.90;58.30;;;;;;5009575;28;20456;-89
2023/01/25 10:29:38;;;;;;;18.03;10.37;;;6.90;58.10;;;;;;5017670;28;20557;-88
2023/01/25 10:32:15;;;;;;;21.43;11.00;;;7.00;58.20;;;;;;5007917;28;20481;-88
2023/01/25 10:34:46;;;;;;;20.20;9.20;;;7.10;57.80;;;;;;5031096;28;21023;-87
2023/01/25 10:37:18;;;;;;;24.43;10.93;;;7.10;58.00;;;;;;5017458;28;20445;-87
2023/01/25 10:39:54;;;;;;;19.60;11.67;;;7.00;57.70;;;;;;5022982;28;21077;-87
2023/01/25 10:42:25;;;;;;;21.33;9.43;;;6.70;57.90;;;;;;5021441;28;20523;-88
2023/01/25 10:44:52;;;;;;;23.33;8.43;;;6.60;58.80;;;;;;5000466;28;20451;-89
2023/01/25 10:47:24;;;;;;;21.10;8.60;;;6.60;58.60;;;;;;5004277;28;20552;-89
2023/01/25 10:49:52;;;;;;;17.67;10.30;;;6.70;58.70;;;;;;5016120;28;21094;-89
2023/01/25 10:52:23;;;;;;;15.07;8.30;;;6.60;58.40;;;;;;5013760;28;20556;-88
2023/01/25 10:55:12;;;;;;;19.63;9.40;;;6.70;58.60;;;;;;5006068;28;20465;-88
2023/01/25 10:57:44;;;;;;;19.17;9.30;;;6.70;58.50;;;;;;4998255;28;20510;-89
2023/01/25 11:00:23;;;;;;;25.40;11.07;;;6.90;58.50;;;;;;5039224;28;20478;-88
2023/01/25 11:02:50;;;;;;;26.67;10.70;;;7.20;58.00;;;;;;5017069;28;20497;-88
2023/01/25 11:05:26;;;;;;;16.60;9.83;;;7.20;58.10;;;;;;5018659;28;20470;-87
2023/01/25 11:07:55;;;;;;;24.00;9.87;;;7.10;57.60;;;;;;5014064;28;20450;-87
2023/01/25 11:10:32;;;;;;;21.17;11.90;;;7.10;57.70;;;;;;5016314;28;20459;-87
2023/01/25 11:13:19;;;;;;;24.97;10.70;;;7.10;57.20;;;;;;5018365;28;20469;-88
2023/01/25 11:15:49;;;;;;;23.67;9.10;;;7.10;57.10;;;;;;5039169;28;20548;-87
2023/01/25 11:18:20;;;;;;;21.30;10.57;;;6.90;56.70;;;;;;5019860;28;20454;-87
2023/01/25 11:20:47;;;;;;;25.80;10.33;;;6.60;57.50;;;;;;5013618;28;20467;-86
2023/01/25 11:23:25;;;;;;;26.40;10.03;;;6.40;58.10;;;;;;5010229;28;20469;-87
2023/01/25 11:25:52;;;;;;;20.70;8.63;;;6.40;58.30;;;;;;5009612;28;20445;-86
2023/01/25 11:28:21;;;;;;;20.87;9.70;;;6.50;58.20;;;;;;5012708;28;20460;-87
2023/01/25 11:30:50;;;;;;;21.67;9.80;;;6.40;58.10;;;;;;5024253;28;20491;-87
2023/01/25 11:33:19;;;;;;;23.77;9.50;;;6.50;57.60;;;;;;5023542;28;20994;-88
2023/01/25 11:36:10;;;;;;;22.30;9.80;;;6.50;57.90;;;;;;5005134;28;21009;-87
2023/01/25 11:38:44;;;;;;;27.67;11.63;;;6.70;57.40;;;;;;5019374;28;20462;-87
2023/01/25 11:41:19;;;;;;;18.60;8.90;;;6.80;57.20;;;;;;5011468;28;20445;-87
2023/01/25 11:44:09;;;;;;;22.90;11.50;;;6.70;57.00;;;;;;5004688;28;20981;-87
2023/01/25 11:46:49;;;;;;;21.20;9.57;;;6.80;56.80;;;;;;5009249;28;20446;-86
2023/01/25 11:49:40;;;;;;;20.60;10.80;;;6.90;56.80;;;;;;5026874;28;20463;-87
2023/01/25 11:52:21;;;;;;;20.90;9.80;;;7.10;56.30;;;;;;5039986;28;20914;-88
2023/01/25 11:54:58;;;;;;;18.50;9.73;;;6.80;56.30;;;;;;5025740;28;20843;-88
2023/01/25 11:57:45;;;;;;;17.67;8.97;;;6.90;56.60;;;;;;5010254;28;20441;-87
2023/01/25 12:00:41;;;;;;;18.77;8.90;;;6.70;56.70;;;;;;5006962;28;20556;-87
2023/01/25 12:03:42;;;;;;;15.27;8.40;;;6.60;57.70;;;;;;5033647;28;21268;-87
2023/01/25 12:06:15;;;;;;;17.60;9.53;;;6.50;57.20;;;;;;5034289;28;21171;-87
2023/01/25 12:09:04;;;;;;;16.80;8.60;;;6.40;57.40;;;;;;5000639;28;20452;-87
2023/01/25 12:11:46;;;;;;;19.50;9.13;;;6.50;57.30;;;;;;5042989;28;20455;-86
2023/01/25 12:14:29;;;;;;;18.53;8.70;;;6.80;57.10;;;;;;5038335;28;20451;-87
2023/01/25 12:17:16;;;;;;;21.67;10.37;;;6.50;57.10;;;;;;5022754;28;20463;-88
2023/01/25 12:20:00;;;;;;;25.47;10.80;;;6.30;57.70;;;;;;5003273;28;20448;-87
2023/01/25 12:22:43;;;;;;;29.17;13.27;;;6.40;57.50;;;;;;5009751;28;20472;-87
2023/01/25 12:25:20;;;;;;;20.70;9.80;;;6.30;57.90;;;;;;5028964;28;20437;-88
2023/01/25 12:28:02;;;;;;;24.00;11.40;;;6.30;57.60;;;;;;5012495;28;20463;-87
2023/01/25 12:30:45;;;;;;;18.27;10.07;;;6.30;58.10;;;;;;5009959;28;21382;-88
2023/01/25 12:33:17;;;;;;;26.33;11.60;;;6.40;58.10;;;;;;5018205;28;20483;-86
2023/01/25 12:35:49;;;;;;;20.83;11.47;;;6.30;58.20;;;;;;5016833;28;20466;-87
2023/01/25 12:38:23;;;;;;;23.97;10.17;;;6.40;58.20;;;;;;5024431;28;21403;-88
2023/01/25 12:40:54;;;;;;;23.80;11.80;;;6.60;57.80;;;;;;5024363;28;20454;-87
2023/01/25 12:43:30;;;;;;;21.13;10.63;;;6.80;57.50;;;;;;5005581;28;20473;-88
2023/01/25 12:45:58;;;;;;;18.60;8.97;;;6.70;57.20;;;;;;5028502;28;20444;-88
2023/01/25 12:48:29;;;;;;;25.40;12.43;;;6.80;56.60;;;;;;5028711;28;20448;-88
2023/01/25 12:50:58;;;;;;;22.57;11.00;;;6.50;57.00;;;;;;5020519;28;20611;-88
2023/01/25 12:53:29;;;;;;;18.30;9.67;;;6.50;57.30;;;;;;5002396;28;20476;-87
2023/01/25 12:55:57;;;;;;;21.40;11.07;;;6.70;57.00;;;;;;5031829;28;20471;-88
2023/01/25 12:58:35;;;;;;;18.77;10.30;;;6.60;57.00;;;;;;5009348;28;20450;-86
2023/01/25 13:01:11;;;;;;;16.03;8.43;;;6.60;57.20;;;;;;5007736;28;20448;-86